sensor_id;sensor_type;location;lat;lon;timestamp;P1;durP1;ratioP1;P2;durP2;ratioP2
23432;SDS011;41331;45.412;10.992;2023-08-17T00:02:06;9.68;;;6.65;;
23432;SDS011;41331;45.412;10.992;2023-08-17T00:04:34;11.95;;;6.70;;
23432;SDS011;41331;45.412;10.992;2023-08-17T00:07:01;11.35;;;6.85;;
23432;SDS011;41331;45.412;10.992;2023-08-17T00:09:29;13.55;;;6.82;;
23432;SDS011;41331;45.412;10.992;2023-08-17T00:11:57;12.15;;;6.57;;
23432;SDS011;41331;45.412;10.992;2023-08-17T00:14:43;14.27;;;6.60;;
23432;SDS011;41331;45.412;10.992;2023-08-17T00:17:10;10.82;;;6.60;;
23432;SDS011;41331;45.412;10.992;2023-08-17T00:19:37;9.27;;;6.53;;
23432;SDS011;41331;45.412;10.992;2023-08-17T00:22:05;16.65;;;7.13;;
23432;SDS011;41331;45.412;10.992;2023-08-17T00:24:32;15.18;;;7.75;;
23432;SDS011;41331;45.412;10.992;2023-08-17T00:26:59;8.85;;;6.80;;
23432;SDS011;41331;45.412;10.992;2023-08-17T00:29:27;9.02;;;7.47;;
23432;SDS011;41331;45.412;10.992;2023-08-17T00:31:56;11.32;;;6.80;;
23432;SDS011;41331;45.412;10.992;2023-08-17T00:34:23;12.20;;;7.63;;
23432;SDS011;41331;45.412;10.992;2023-08-17T00:36:52;11.23;;;7.47;;
23432;SDS011;41331;45.412;10.992;2023-08-17T00:39:19;11.35;;;6.63;;
23432;SDS011;41331;45.412;10.992;2023-08-17T00:41:47;9.85;;;7.45;;
23432;SDS011;41331;45.412;10.992;2023-08-17T00:44:14;9.05;;;6.35;;
23432;SDS011;41331;45.412;10.992;2023-08-17T00:46:41;15.75;;;8.02;;
23432;SDS011;41331;45.412;10.992;2023-08-17T00:49:09;11.25;;;8.82;;
23432;SDS011;41331;45.412;10.992;2023-08-17T00:51:37;14.77;;;8.55;;
23432;SDS011;41331;45.412;10.992;2023-08-17T00:54:06;13.63;;;8.52;;
23432;SDS011;41331;45.412;10.992;2023-08-17T00:56:34;11.07;;;9.07;;
23432;SDS011;41331;45.412;10.992;2023-08-17T00:59:01;12.68;;;9.52;;
23432;SDS011;41331;45.412;10.992;2023-08-17T01:01:32;12.13;;;9.57;;
23432;SDS011;41331;45.412;10.992;2023-08-17T01:04:00;15.65;;;10.05;;
23432;SDS011;41331;45.412;10.992;2023-08-17T01:06:30;13.00;;;9.63;;
23432;SDS011;41331;45.412;10.992;2023-08-17T01:08:58;12.25;;;9.90;;
23432;SDS011;41331;45.412;10.992;2023-08-17T01:11:29;11.10;;;9.57;;
23432;SDS011;41331;45.412;10.992;2023-08-17T01:14:10;15.50;;;10.60;;
23432;SDS011;41331;45.412;10.992;2023-08-17T01:17:10;13.88;;;9.57;;
23432;SDS011;41331;45.412;10.992;2023-08-17T01:19:42;15.82;;;9.05;;
23432;SDS011;41331;45.412;10.992;2023-08-17T01:22:12;12.77;;;9.60;;
23432;SDS011;41331;45.412;10.992;2023-08-17T01:27:11;13.65;;;9.38;;
23432;SDS011;41331;45.412;10.992;2023-08-17T01:29:38;13.13;;;9.32;;
23432;SDS011;41331;45.412;10.992;2023-08-17T01:32:08;14.35;;;10.38;;
23432;SDS011;41331;45.412;10.992;2023-08-17T01:34:44;13.73;;;9.70;;
23432;SDS011;41331;45.412;10.992;2023-08-17T01:37:18;12.02;;;8.95;;
23432;SDS011;41331;45.412;10.992;2023-08-17T01:39:49;13.18;;;10.00;;
23432;SDS011;41331;45.412;10.992;2023-08-17T01:42:21;12.57;;;9.98;;
23432;SDS011;41331;45.412;10.992;2023-08-17T01:44:50;12.88;;;9.45;;
23432;SDS011;41331;45.412;10.992;2023-08-17T01:47:21;13.65;;;9.88;;
23432;SDS011;41331;45.412;10.992;2023-08-17T01:49:50;13.10;;;9.32;;
23432;SDS011;41331;45.412;10.992;2023-08-17T01:52:17;17.33;;;9.90;;
23432;SDS011;41331;45.412;10.992;2023-08-17T01:54:45;15.27;;;9.38;;
23432;SDS011;41331;45.412;10.992;2023-08-17T01:57:12;15.98;;;9.43;;
23432;SDS011;41331;45.412;10.992;2023-08-17T01:59:40;13.75;;;9.27;;
23432;SDS011;41331;45.412;10.992;2023-08-17T02:02:07;12.77;;;9.60;;
23432;SDS011;41331;45.412;10.992;2023-08-17T02:04:35;15.20;;;10.38;;
23432;SDS011;41331;45.412;10.992;2023-08-17T02:07:03;12.35;;;9.50;;
23432;SDS011;41331;45.412;10.992;2023-08-17T02:09:30;13.52;;;9.73;;
23432;SDS011;41331;45.412;10.992;2023-08-17T02:12:00;12.93;;;10.00;;
23432;SDS011;41331;45.412;10.992;2023-08-17T02:14:27;16.92;;;9.68;;
23432;SDS011;41331;45.412;10.992;2023-08-17T02:16:54;13.93;;;9.63;;
23432;SDS011;41331;45.412;10.992;2023-08-17T02:19:23;13.73;;;9.38;;
23432;SDS011;41331;45.412;10.992;2023-08-17T02:21:51;12.30;;;9.70;;
23432;SDS011;41331;45.412;10.992;2023-08-17T02:24:20;12.38;;;10.18;;
23432;SDS011;41331;45.412;10.992;2023-08-17T02:26:51;15.50;;;9.32;;
23432;SDS011;41331;45.412;10.992;2023-08-17T02:29:18;13.32;;;10.00;;
23432;SDS011;41331;45.412;10.992;2023-08-17T02:31:45;14.13;;;10.00;;
23432;SDS011;41331;45.412;10.992;2023-08-17T02:34:16;12.25;;;10.05;;
23432;SDS011;41331;45.412;10.992;2023-08-17T02:36:43;18.10;;;10.55;;
23432;SDS011;41331;45.412;10.992;2023-08-17T02:39:11;14.65;;;9.85;;
23432;SDS011;41331;45.412;10.992;2023-08-17T02:41:38;15.30;;;9.45;;
23432;SDS011;41331;45.412;10.992;2023-08-17T02:44:06;16.77;;;10.30;;
23432;SDS011;41331;45.412;10.992;2023-08-17T02:46:35;15.02;;;10.75;;
23432;SDS011;41331;45.412;10.992;2023-08-17T02:49:02;14.43;;;9.88;;
23432;SDS011;41331;45.412;10.992;2023-08-17T02:51:30;12.00;;;10.68;;
23432;SDS011;41331;45.412;10.992;2023-08-17T02:53:57;13.95;;;10.68;;
23432;SDS011;41331;45.412;10.992;2023-08-17T02:56:25;13.27;;;10.98;;
23432;SDS011;41331;45.412;10.992;2023-08-17T02:58:52;15.68;;;9.85;;
23432;SDS011;41331;45.412;10.992;2023-08-17T03:01:19;14.80;;;11.15;;
23432;SDS011;41331;45.412;10.992;2023-08-17T03:03:48;13.05;;;10.45;;
23432;SDS011;41331;45.412;10.992;2023-08-17T03:06:16;14.18;;;10.77;;
23432;SDS011;41331;45.412;10.992;2023-08-17T03:08:43;14.82;;;11.70;;
23432;SDS011;41331;45.412;10.992;2023-08-17T03:11:11;12.75;;;10.60;;
23432;SDS011;41331;45.412;10.992;2023-08-17T03:13:39;18.63;;;11.32;;
23432;SDS011;41331;45.412;10.992;2023-08-17T03:16:08;13.40;;;10.80;;
23432;SDS011;41331;45.412;10.992;2023-08-17T03:18:36;13.48;;;10.85;;
23432;SDS011;41331;45.412;10.992;2023-08-17T03:21:04;13.77;;;11.05;;
23432;SDS011;41331;45.412;10.992;2023-08-17T03:23:32;15.35;;;10.95;;
23432;SDS011;41331;45.412;10.992;2023-08-17T03:25:59;17.75;;;11.55;;
23432;SDS011;41331;45.412;10.992;2023-08-17T03:28:28;21.00;;;11.15;;
23432;SDS011;41331;45.412;10.992;2023-08-17T03:30:55;13.25;;;10.23;;
23432;SDS011;41331;45.412;10.992;2023-08-17T03:33:24;13.40;;;10.35;;
23432;SDS011;41331;45.412;10.992;2023-08-17T03:35:52;15.32;;;11.38;;
23432;SDS011;41331;45.412;10.992;2023-08-17T03:38:19;14.75;;;10.82;;
23432;SDS011;41331;45.412;10.992;2023-08-17T03:40:47;13.82;;;10.85;;
23432;SDS011;41331;45.412;10.992;2023-08-17T03:43:15;18.33;;;11.65;;
23432;SDS011;41331;45.412;10.992;2023-08-17T03:45:42;13.90;;;11.55;;
23432;SDS011;41331;45.412;10.992;2023-08-17T03:48:10;15.70;;;11.77;;
23432;SDS011;41331;45.412;10.992;2023-08-17T03:50:37;18.45;;;12.02;;
23432;SDS011;41331;45.412;10.992;2023-08-17T03:53:05;26.85;;;11.82;;
23432;SDS011;41331;45.412;10.992;2023-08-17T03:55:32;14.90;;;11.52;;
23432;SDS011;41331;45.412;10.992;2023-08-17T03:58:01;17.10;;;11.30;;
23432;SDS011;41331;45.412;10.992;2023-08-17T04:00:28;14.77;;;11.20;;
23432;SDS011;41331;45.412;10.992;2023-08-17T04:02:58;18.38;;;11.80;;
23432;SDS011;41331;45.412;10.992;2023-08-17T04:05:26;16.63;;;11.32;;
23432;SDS011;41331;45.412;10.992;2023-08-17T04:07:54;17.70;;;11.07;;
23432;SDS011;41331;45.412;10.992;2023-08-17T04:10:21;15.43;;;9.15;;
23432;SDS011;41331;45.412;10.992;2023-08-17T04:12:49;13.05;;;9.98;;
23432;SDS011;41331;45.412;10.992;2023-08-17T04:15:16;14.63;;;10.40;;
23432;SDS011;41331;45.412;10.992;2023-08-17T04:17:44;14.40;;;9.48;;
23432;SDS011;41331;45.412;10.992;2023-08-17T04:20:11;12.77;;;9.80;;
23432;SDS011;41331;45.412;10.992;2023-08-17T04:22:41;14.55;;;9.57;;
23432;SDS011;41331;45.412;10.992;2023-08-17T04:25:09;10.43;;;9.20;;
23432;SDS011;41331;45.412;10.992;2023-08-17T04:27:36;13.55;;;8.98;;
23432;SDS011;41331;45.412;10.992;2023-08-17T04:30:04;13.48;;;9.20;;
23432;SDS011;41331;45.412;10.992;2023-08-17T04:32:40;14.27;;;8.50;;
23432;SDS011;41331;45.412;10.992;2023-08-17T04:35:08;12.50;;;8.90;;
23432;SDS011;41331;45.412;10.992;2023-08-17T04:37:37;10.80;;;9.00;;
23432;SDS011;41331;45.412;10.992;2023-08-17T04:40:04;12.13;;;8.85;;
23432;SDS011;41331;45.412;10.992;2023-08-17T04:42:33;10.07;;;8.48;;
23432;SDS011;41331;45.412;10.992;2023-08-17T04:45:01;14.38;;;8.32;;
23432;SDS011;41331;45.412;10.992;2023-08-17T04:47:30;15.80;;;9.68;;
23432;SDS011;41331;45.412;10.992;2023-08-17T04:49:58;12.10;;;9.55;;
23432;SDS011;41331;45.412;10.992;2023-08-17T04:52:25;11.93;;;9.18;;
23432;SDS011;41331;45.412;10.992;2023-08-17T04:54:53;16.35;;;8.98;;
23432;SDS011;41331;45.412;10.992;2023-08-17T04:57:20;16.75;;;9.85;;
23432;SDS011;41331;45.412;10.992;2023-08-17T04:59:47;18.88;;;9.52;;
23432;SDS011;41331;45.412;10.992;2023-08-17T05:02:16;16.38;;;9.52;;
23432;SDS011;41331;45.412;10.992;2023-08-17T05:04:45;12.02;;;9.52;;
23432;SDS011;41331;45.412;10.992;2023-08-17T05:07:13;12.90;;;9.65;;
23432;SDS011;41331;45.412;10.992;2023-08-17T05:09:40;11.38;;;9.50;;
23432;SDS011;41331;45.412;10.992;2023-08-17T05:12:08;16.77;;;10.40;;
23432;SDS011;41331;45.412;10.992;2023-08-17T05:14:36;12.57;;;10.15;;
23432;SDS011;41331;45.412;10.992;2023-08-17T05:17:04;12.73;;;10.25;;
23432;SDS011;41331;45.412;10.992;2023-08-17T05:19:31;17.23;;;10.93;;
23432;SDS011;41331;45.412;10.992;2023-08-17T05:21:58;18.55;;;12.23;;
23432;SDS011;41331;45.412;10.992;2023-08-17T05:24:26;19.52;;;11.40;;
23432;SDS011;41331;45.412;10.992;2023-08-17T05:26:54;17.08;;;10.80;;
23432;SDS011;41331;45.412;10.992;2023-08-17T05:29:21;14.95;;;10.52;;
23432;SDS011;41331;45.412;10.992;2023-08-17T05:31:49;16.05;;;11.00;;
23432;SDS011;41331;45.412;10.992;2023-08-17T05:34:16;13.48;;;9.45;;
23432;SDS011;41331;45.412;10.992;2023-08-17T05:36:43;13.57;;;10.65;;
23432;SDS011;41331;45.412;10.992;2023-08-17T05:39:11;12.60;;;9.95;;
23432;SDS011;41331;45.412;10.992;2023-08-17T05:41:39;16.73;;;10.05;;
23432;SDS011;41331;45.412;10.992;2023-08-17T05:44:06;17.27;;;10.77;;
23432;SDS011;41331;45.412;10.992;2023-08-17T05:46:34;17.48;;;10.07;;
23432;SDS011;41331;45.412;10.992;2023-08-17T05:49:01;15.95;;;10.68;;
23432;SDS011;41331;45.412;10.992;2023-08-17T05:51:30;15.18;;;9.90;;
23432;SDS011;41331;45.412;10.992;2023-08-17T05:53:57;12.80;;;9.05;;
23432;SDS011;41331;45.412;10.992;2023-08-17T05:56:24;16.27;;;11.02;;
23432;SDS011;41331;45.412;10.992;2023-08-17T05:58:52;18.45;;;13.07;;
23432;SDS011;41331;45.412;10.992;2023-08-17T06:01:19;19.33;;;12.80;;
23432;SDS011;41331;45.412;10.992;2023-08-17T06:03:47;15.02;;;11.10;;
23432;SDS011;41331;45.412;10.992;2023-08-17T06:06:14;11.13;;;9.63;;
23432;SDS011;41331;45.412;10.992;2023-08-17T06:08:42;16.83;;;9.55;;
23432;SDS011;41331;45.412;10.992;2023-08-17T06:11:09;16.42;;;8.88;;
23432;SDS011;41331;45.412;10.992;2023-08-17T06:13:36;13.68;;;9.07;;
23432;SDS011;41331;45.412;10.992;2023-08-17T06:16:04;12.13;;;10.38;;
23432;SDS011;41331;45.412;10.992;2023-08-17T06:18:31;15.85;;;9.18;;
23432;SDS011;41331;45.412;10.992;2023-08-17T06:20:59;13.68;;;9.07;;
23432;SDS011;41331;45.412;10.992;2023-08-17T06:23:26;18.08;;;13.30;;
23432;SDS011;41331;45.412;10.992;2023-08-17T06:25:57;15.65;;;10.88;;
23432;SDS011;41331;45.412;10.992;2023-08-17T06:28:26;12.88;;;8.43;;
23432;SDS011;41331;45.412;10.992;2023-08-17T06:30:54;14.15;;;9.70;;
23432;SDS011;41331;45.412;10.992;2023-08-17T06:33:22;11.20;;;9.00;;
23432;SDS011;41331;45.412;10.992;2023-08-17T06:35:50;18.55;;;9.98;;
23432;SDS011;41331;45.412;10.992;2023-08-17T06:38:17;15.38;;;8.77;;
23432;SDS011;41331;45.412;10.992;2023-08-17T06:40:47;16.90;;;8.45;;
23432;SDS011;41331;45.412;10.992;2023-08-17T06:43:15;18.38;;;9.60;;
23432;SDS011;41331;45.412;10.992;2023-08-17T06:45:44;12.73;;;9.55;;
23432;SDS011;41331;45.412;10.992;2023-08-17T06:48:12;14.23;;;8.88;;
23432;SDS011;41331;45.412;10.992;2023-08-17T06:50:39;11.02;;;8.82;;
23432;SDS011;41331;45.412;10.992;2023-08-17T06:53:07;13.25;;;9.82;;
23432;SDS011;41331;45.412;10.992;2023-08-17T06:55:34;12.38;;;9.30;;
23432;SDS011;41331;45.412;10.992;2023-08-17T06:58:01;15.18;;;9.25;;
23432;SDS011;41331;45.412;10.992;2023-08-17T07:00:29;14.23;;;9.70;;
23432;SDS011;41331;45.412;10.992;2023-08-17T07:02:56;13.43;;;8.27;;
23432;SDS011;41331;45.412;10.992;2023-08-17T07:05:27;13.70;;;8.30;;
23432;SDS011;41331;45.412;10.992;2023-08-17T07:07:54;16.75;;;9.20;;
23432;SDS011;41331;45.412;10.992;2023-08-17T07:10:22;11.02;;;8.70;;
23432;SDS011;41331;45.412;10.992;2023-08-17T07:12:49;17.35;;;8.73;;
23432;SDS011;41331;45.412;10.992;2023-08-17T07:15:17;15.07;;;8.90;;
23432;SDS011;41331;45.412;10.992;2023-08-17T07:17:44;16.60;;;8.65;;
23432;SDS011;41331;45.412;10.992;2023-08-17T07:20:12;14.00;;;9.18;;
23432;SDS011;41331;45.412;10.992;2023-08-17T07:22:43;14.18;;;9.52;;
23432;SDS011;41331;45.412;10.992;2023-08-17T07:25:11;18.98;;;9.10;;
23432;SDS011;41331;45.412;10.992;2023-08-17T07:27:38;15.00;;;9.27;;
23432;SDS011;41331;45.412;10.992;2023-08-17T07:30:06;12.07;;;8.32;;
23432;SDS011;41331;45.412;10.992;2023-08-17T07:32:34;12.52;;;7.93;;
23432;SDS011;41331;45.412;10.992;2023-08-17T07:35:01;11.07;;;8.02;;
23432;SDS011;41331;45.412;10.992;2023-08-17T07:37:29;15.35;;;8.68;;
23432;SDS011;41331;45.412;10.992;2023-08-17T07:42:31;10.13;;;7.13;;
23432;SDS011;41331;45.412;10.992;2023-08-17T07:44:58;12.77;;;6.93;;
23432;SDS011;41331;45.412;10.992;2023-08-17T07:47:25;11.68;;;8.20;;
23432;SDS011;41331;45.412;10.992;2023-08-17T07:49:53;14.13;;;7.53;;
23432;SDS011;41331;45.412;10.992;2023-08-17T07:52:21;9.90;;;7.68;;
23432;SDS011;41331;45.412;10.992;2023-08-17T07:54:48;13.82;;;7.47;;
23432;SDS011;41331;45.412;10.992;2023-08-17T07:57:15;10.77;;;7.40;;
23432;SDS011;41331;45.412;10.992;2023-08-17T07:59:43;11.02;;;7.38;;
23432;SDS011;41331;45.412;10.992;2023-08-17T08:02:10;10.95;;;7.68;;
23432;SDS011;41331;45.412;10.992;2023-08-17T08:04:37;11.07;;;7.63;;
23432;SDS011;41331;45.412;10.992;2023-08-17T08:07:05;13.20;;;7.97;;
23432;SDS011;41331;45.412;10.992;2023-08-17T08:09:33;9.05;;;6.93;;
23432;SDS011;41331;45.412;10.992;2023-08-17T08:12:00;15.07;;;7.97;;
23432;SDS011;41331;45.412;10.992;2023-08-17T08:14:27;9.43;;;7.35;;
23432;SDS011;41331;45.412;10.992;2023-08-17T08:16:55;12.27;;;8.18;;
23432;SDS011;41331;45.412;10.992;2023-08-17T08:19:22;11.15;;;7.90;;
23432;SDS011;41331;45.412;10.992;2023-08-17T08:21:50;10.82;;;7.70;;
23432;SDS011;41331;45.412;10.992;2023-08-17T08:24:18;18.00;;;7.47;;
23432;SDS011;41331;45.412;10.992;2023-08-17T08:27:03;11.88;;;7.47;;
23432;SDS011;41331;45.412;10.992;2023-08-17T08:29:31;11.98;;;7.20;;
23432;SDS011;41331;45.412;10.992;2023-08-17T08:31:58;8.45;;;6.45;;
23432;SDS011;41331;45.412;10.992;2023-08-17T08:34:27;9.50;;;6.38;;
23432;SDS011;41331;45.412;10.992;2023-08-17T08:36:54;10.43;;;6.28;;
23432;SDS011;41331;45.412;10.992;2023-08-17T08:39:22;10.65;;;6.72;;
23432;SDS011;41331;45.412;10.992;2023-08-17T08:41:52;9.82;;;7.13;;
23432;SDS011;41331;45.412;10.992;2023-08-17T08:44:20;10.60;;;6.75;;
23432;SDS011;41331;45.412;10.992;2023-08-17T08:46:48;9.98;;;6.75;;
23432;SDS011;41331;45.412;10.992;2023-08-17T08:49:18;9.02;;;6.63;;
23432;SDS011;41331;45.412;10.992;2023-08-17T08:51:48;10.37;;;6.70;;
23432;SDS011;41331;45.412;10.992;2023-08-17T08:54:18;8.52;;;7.00;;
23432;SDS011;41331;45.412;10.992;2023-08-17T08:56:50;10.20;;;7.40;;
23432;SDS011;41331;45.412;10.992;2023-08-17T08:59:26;9.50;;;6.68;;
23432;SDS011;41331;45.412;10.992;2023-08-17T09:01:55;9.75;;;6.32;;
23432;SDS011;41331;45.412;10.992;2023-08-17T09:04:25;16.60;;;6.85;;
23432;SDS011;41331;45.412;10.992;2023-08-17T09:06:53;14.25;;;6.82;;
23432;SDS011;41331;45.412;10.992;2023-08-17T09:09:22;9.07;;;6.78;;
23432;SDS011;41331;45.412;10.992;2023-08-17T09:11:56;10.40;;;6.53;;
23432;SDS011;41331;45.412;10.992;2023-08-17T09:14:23;15.15;;;7.93;;
23432;SDS011;41331;45.412;10.992;2023-08-17T09:16:51;10.02;;;6.47;;
23432;SDS011;41331;45.412;10.992;2023-08-17T09:19:18;7.78;;;6.60;;
23432;SDS011;41331;45.412;10.992;2023-08-17T09:21:47;10.27;;;7.20;;
23432;SDS011;41331;45.412;10.992;2023-08-17T09:24:17;14.13;;;7.20;;
23432;SDS011;41331;45.412;10.992;2023-08-17T09:26:45;11.80;;;7.50;;
23432;SDS011;41331;45.412;10.992;2023-08-17T09:29:21;17.98;;;7.45;;
23432;SDS011;41331;45.412;10.992;2023-08-17T09:31:50;12.57;;;7.80;;
23432;SDS011;41331;45.412;10.992;2023-08-17T09:34:17;11.02;;;7.93;;
23432;SDS011;41331;45.412;10.992;2023-08-17T09:36:46;9.70;;;7.32;;
23432;SDS011;41331;45.412;10.992;2023-08-17T09:39:17;16.23;;;7.70;;
23432;SDS011;41331;45.412;10.992;2023-08-17T09:41:45;14.30;;;7.60;;
23432;SDS011;41331;45.412;10.992;2023-08-17T09:44:12;10.73;;;7.15;;
23432;SDS011;41331;45.412;10.992;2023-08-17T09:46:43;13.98;;;7.63;;
23432;SDS011;41331;45.412;10.992;2023-08-17T09:49:11;10.85;;;7.50;;
23432;SDS011;41331;45.412;10.992;2023-08-17T09:51:43;12.27;;;7.70;;
23432;SDS011;41331;45.412;10.992;2023-08-17T09:54:21;10.43;;;7.13;;
23432;SDS011;41331;45.412;10.992;2023-08-17T09:56:55;13.40;;;7.60;;
23432;SDS011;41331;45.412;10.992;2023-08-17T09:59:26;12.00;;;7.85;;
23432;SDS011;41331;45.412;10.992;2023-08-17T10:01:55;13.45;;;8.95;;
23432;SDS011;41331;45.412;10.992;2023-08-17T10:04:25;13.13;;;8.70;;
23432;SDS011;41331;45.412;10.992;2023-08-17T10:06:59;11.50;;;7.03;;
23432;SDS011;41331;45.412;10.992;2023-08-17T10:09:31;12.93;;;7.07;;
23432;SDS011;41331;45.412;10.992;2023-08-17T10:12:06;11.82;;;7.50;;
23432;SDS011;41331;45.412;10.992;2023-08-17T10:14:40;8.95;;;6.90;;
23432;SDS011;41331;45.412;10.992;2023-08-17T10:17:15;11.65;;;7.22;;
23432;SDS011;41331;45.412;10.992;2023-08-17T10:19:50;10.68;;;6.68;;
23432;SDS011;41331;45.412;10.992;2023-08-17T10:25:11;9.93;;;7.15;;
23432;SDS011;41331;45.412;10.992;2023-08-17T10:27:42;14.05;;;7.15;;
23432;SDS011;41331;45.412;10.992;2023-08-17T10:30:10;10.57;;;6.70;;
23432;SDS011;41331;45.412;10.992;2023-08-17T10:32:38;15.88;;;7.22;;
23432;SDS011;41331;45.412;10.992;2023-08-17T10:35:12;11.02;;;6.30;;
23432;SDS011;41331;45.412;10.992;2023-08-17T10:37:41;16.70;;;6.88;;
23432;SDS011;41331;45.412;10.992;2023-08-17T10:40:09;9.43;;;6.40;;
23432;SDS011;41331;45.412;10.992;2023-08-17T10:42:41;11.43;;;6.30;;
23432;SDS011;41331;45.412;10.992;2023-08-17T10:48:47;16.15;;;6.15;;
23432;SDS011;41331;45.412;10.992;2023-08-17T10:50:59;8.75;;;6.13;;
23432;SDS011;41331;45.412;10.992;2023-08-17T10:53:28;6.93;;;5.78;;
23432;SDS011;41331;45.412;10.992;2023-08-17T10:56:02;13.02;;;6.30;;
23432;SDS011;41331;45.412;10.992;2023-08-17T10:58:34;13.20;;;5.70;;
23432;SDS011;41331;45.412;10.992;2023-08-17T11:01:01;13.68;;;6.22;;
23432;SDS011;41331;45.412;10.992;2023-08-17T11:03:32;8.32;;;6.22;;
23432;SDS011;41331;45.412;10.992;2023-08-17T11:06:13;7.85;;;5.93;;
23432;SDS011;41331;45.412;10.992;2023-08-17T11:08:53;8.40;;;6.00;;
23432;SDS011;41331;45.412;10.992;2023-08-17T11:11:30;12.77;;;6.50;;
23432;SDS011;41331;45.412;10.992;2023-08-17T11:13:58;7.68;;;6.63;;
23432;SDS011;41331;45.412;10.992;2023-08-17T11:16:25;10.18;;;6.70;;
23432;SDS011;41331;45.412;10.992;2023-08-17T11:18:53;10.82;;;6.38;;
23432;SDS011;41331;45.412;10.992;2023-08-17T11:21:22;11.82;;;6.93;;
23432;SDS011;41331;45.412;10.992;2023-08-17T11:23:50;10.45;;;6.55;;
23432;SDS011;41331;45.412;10.992;2023-08-17T11:26:18;12.40;;;6.90;;
23432;SDS011;41331;45.412;10.992;2023-08-17T11:28:46;9.85;;;6.50;;
23432;SDS011;41331;45.412;10.992;2023-08-17T11:31:14;8.35;;;6.75;;
23432;SDS011;41331;45.412;10.992;2023-08-17T11:33:43;9.25;;;6.55;;
23432;SDS011;41331;45.412;10.992;2023-08-17T11:36:12;10.13;;;6.30;;
23432;SDS011;41331;45.412;10.992;2023-08-17T11:38:40;9.40;;;6.15;;
23432;SDS011;41331;45.412;10.992;2023-08-17T11:41:09;13.82;;;6.85;;
23432;SDS011;41331;45.412;10.992;2023-08-17T11:43:44;9.05;;;6.65;;
23432;SDS011;41331;45.412;10.992;2023-08-17T11:46:12;13.52;;;6.18;;
23432;SDS011;41331;45.412;10.992;2023-08-17T11:48:40;11.15;;;6.28;;
23432;SDS011;41331;45.412;10.992;2023-08-17T11:51:08;9.30;;;6.43;;
23432;SDS011;41331;45.412;10.992;2023-08-17T11:53:36;9.57;;;6.00;;
23432;SDS011;41331;45.412;10.992;2023-08-17T11:56:06;12.95;;;5.93;;
23432;SDS011;41331;45.412;10.992;2023-08-17T11:58:40;12.00;;;6.50;;
23432;SDS011;41331;45.412;10.992;2023-08-17T12:01:10;9.85;;;5.72;;
23432;SDS011;41331;45.412;10.992;2023-08-17T12:03:41;10.05;;;6.43;;
23432;SDS011;41331;45.412;10.992;2023-08-17T12:06:10;13.73;;;6.63;;
23432;SDS011;41331;45.412;10.992;2023-08-17T12:08:43;11.03;;;6.43;;
23432;SDS011;41331;45.412;10.992;2023-08-17T12:11:17;14.10;;;6.05;;
23432;SDS011;41331;45.412;10.992;2023-08-17T12:13:49;8.68;;;6.05;;
23432;SDS011;41331;45.412;10.992;2023-08-17T12:16:22;12.07;;;5.70;;
23432;SDS011;41331;45.412;10.992;2023-08-17T12:18:53;12.83;;;6.23;;
23432;SDS011;41331;45.412;10.992;2023-08-17T12:21:21;9.68;;;5.88;;
23432;SDS011;41331;45.412;10.992;2023-08-17T12:23:53;9.57;;;5.97;;
23432;SDS011;41331;45.412;10.992;2023-08-17T12:26:21;11.55;;;5.97;;
23432;SDS011;41331;45.412;10.992;2023-08-17T12:28:49;10.98;;;5.63;;
23432;SDS011;41331;45.412;10.992;2023-08-17T12:31:20;10.02;;;5.35;;
23432;SDS011;41331;45.412;10.992;2023-08-17T12:33:50;8.00;;;5.75;;
23432;SDS011;41331;45.412;10.992;2023-08-17T12:36:18;8.25;;;5.90;;
23432;SDS011;41331;45.412;10.992;2023-08-17T12:38:47;7.80;;;5.38;;
23432;SDS011;41331;45.412;10.992;2023-08-17T12:41:15;7.80;;;5.70;;
23432;SDS011;41331;45.412;10.992;2023-08-17T12:43:43;11.57;;;5.57;;
23432;SDS011;41331;45.412;10.992;2023-08-17T12:46:10;10.52;;;5.57;;
23432;SDS011;41331;45.412;10.992;2023-08-17T12:48:41;9.90;;;5.63;;
23432;SDS011;41331;45.412;10.992;2023-08-17T12:51:08;8.48;;;5.82;;
23432;SDS011;41331;45.412;10.992;2023-08-17T12:53:36;10.05;;;5.70;;
23432;SDS011;41331;45.412;10.992;2023-08-17T12:56:03;9.82;;;5.00;;
23432;SDS011;41331;45.412;10.992;2023-08-17T12:58:31;10.98;;;5.35;;
23432;SDS011;41331;45.412;10.992;2023-08-17T13:00:58;11.57;;;5.90;;
23432;SDS011;41331;45.412;10.992;2023-08-17T13:03:27;11.43;;;6.18;;
23432;SDS011;41331;45.412;10.992;2023-08-17T13:05:55;9.93;;;5.18;;
23432;SDS011;41331;45.412;10.992;2023-08-17T13:08:22;6.35;;;4.95;;
23432;SDS011;41331;45.412;10.992;2023-08-17T13:10:50;9.73;;;5.10;;
23432;SDS011;41331;45.412;10.992;2023-08-17T13:13:17;12.75;;;5.68;;
23432;SDS011;41331;45.412;10.992;2023-08-17T13:15:45;10.35;;;5.60;;
23432;SDS011;41331;45.412;10.992;2023-08-17T13:18:12;10.85;;;5.93;;
23432;SDS011;41331;45.412;10.992;2023-08-17T13:20:41;8.30;;;5.53;;
23432;SDS011;41331;45.412;10.992;2023-08-17T13:23:09;6.88;;;5.43;;
23432;SDS011;41331;45.412;10.992;2023-08-17T13:25:37;12.50;;;5.75;;
23432;SDS011;41331;45.412;10.992;2023-08-17T13:28:04;8.18;;;5.07;;
23432;SDS011;41331;45.412;10.992;2023-08-17T13:30:32;11.02;;;6.28;;
23432;SDS011;41331;45.412;10.992;2023-08-17T13:32:59;8.27;;;5.45;;
23432;SDS011;41331;45.412;10.992;2023-08-17T13:35:33;6.72;;;5.40;;
23432;SDS011;41331;45.412;10.992;2023-08-17T13:38:03;7.75;;;5.32;;
23432;SDS011;41331;45.412;10.992;2023-08-17T13:40:31;7.22;;;5.30;;
23432;SDS011;41331;45.412;10.992;2023-08-17T13:43:01;7.60;;;5.13;;
23432;SDS011;41331;45.412;10.992;2023-08-17T13:45:33;8.02;;;5.75;;
23432;SDS011;41331;45.412;10.992;2023-08-17T13:48:01;9.35;;;5.80;;
23432;SDS011;41331;45.412;10.992;2023-08-17T13:50:29;9.45;;;5.78;;
23432;SDS011;41331;45.412;10.992;2023-08-17T13:52:58;9.70;;;5.88;;
23432;SDS011;41331;45.412;10.992;2023-08-17T13:55:29;7.53;;;5.20;;
23432;SDS011;41331;45.412;10.992;2023-08-17T13:57:57;13.35;;;5.80;;
23432;SDS011;41331;45.412;10.992;2023-08-17T14:00:25;7.65;;;5.60;;
23432;SDS011;41331;45.412;10.992;2023-08-17T14:02:53;9.13;;;5.90;;
23432;SDS011;41331;45.412;10.992;2023-08-17T14:05:21;10.85;;;6.05;;
23432;SDS011;41331;45.412;10.992;2023-08-17T14:07:48;10.70;;;5.78;;
23432;SDS011;41331;45.412;10.992;2023-08-17T14:10:17;13.95;;;6.10;;
23432;SDS011;41331;45.412;10.992;2023-08-17T14:13:09;9.77;;;5.82;;
23432;SDS011;41331;45.412;10.992;2023-08-17T14:15:36;12.00;;;6.05;;
23432;SDS011;41331;45.412;10.992;2023-08-17T14:18:04;8.82;;;5.35;;
23432;SDS011;41331;45.412;10.992;2023-08-17T14:20:32;7.97;;;5.57;;
23432;SDS011;41331;45.412;10.992;2023-08-17T14:23:02;7.78;;;5.75;;
23432;SDS011;41331;45.412;10.992;2023-08-17T14:25:29;10.40;;;5.90;;
23432;SDS011;41331;45.412;10.992;2023-08-17T14:27:57;9.20;;;5.78;;
23432;SDS011;41331;45.412;10.992;2023-08-17T14:30:26;10.93;;;5.35;;
23432;SDS011;41331;45.412;10.992;2023-08-17T14:32:54;8.65;;;5.32;;
23432;SDS011;41331;45.412;10.992;2023-08-17T14:35:27;10.50;;;5.50;;
23432;SDS011;41331;45.412;10.992;2023-08-17T14:37:55;8.73;;;6.30;;
23432;SDS011;41331;45.412;10.992;2023-08-17T14:40:25;8.07;;;6.03;;
23432;SDS011;41331;45.412;10.992;2023-08-17T14:42:53;7.80;;;5.90;;